Flight Track Log - Related Links

Times and Time Zones

All times are in EDT time to prevent confusion due to time zone crossing. See the SGB2512 flight status page for this flight to view local times or setup timezone preferences in your user account.

Time Position Orientation Groundspeed Altitude Reporting Facility
EDT Latitude Longitude Course Direction KTS MPH feet Rate Location/Type
Tue 07:24:25 PM 39.4703 -74.6481 238° Southwest 172 198 2,400  Level Washington Center
Tue 07:25:25 PM 39.4394 -74.7128 253° West 186 214 4,400 2,542 Climbing Washington Center
Tue 07:26:23 PM 39.4192 -74.7964 250° West 217 250 7,400 3,000 Climbing Washington Center
Tue 07:27:23 PM 39.3947 -74.8853 253° West 248 285 10,300 2,678 Climbing Washington Center
Tue 07:28:24 PM 39.3722 -74.9822 268° West 273 314 12,800 1,869 Climbing Washington Center
Tue 07:29:25 PM 39.3686 -75.0975 307° West 308 354 14,100 1,636 Climbing Washington Center
Tue 07:30:25 PM 39.4317 -75.2072 309° West 319 367 16,100 1,400 Climbing Washington Center
Tue 07:31:25 PM 39.5008 -75.3172 309° West 364 419 16,900 1,636 Climbing Washington Center
Tue 07:33:54 PM 39.6769 -75.6017 298° West 417 480 21,800 1,457 Climbing New York Center
Tue 07:34:55 PM 39.7297 -75.7322 295° West 417 480 22,000 153 Climbing New York Center
Tue 07:35:52 PM 39.7800 -75.8736 298° West 417 480 22,100  Climbing New York Center
Tue 07:36:53 PM 39.8308 -75.9964 327° Northwest 423 487 22,000 -49 Descending New York Center
Tue 07:37:54 PM 39.9414 -76.0886 339° North 419 482 22,000  Level New York Center
Tue 07:38:52 PM 40.0556 -76.1461 340° North 435 501 22,000  Level New York Center
Tue 07:39:53 PM 40.1739 -76.2014 341° North 442 509 22,000  Level New York Center
Tue 07:40:52 PM 40.2925 -76.2542 339° North 447 514 22,000  Level New York Center
Tue 07:41:53 PM 40.4106 -76.3128 340° North 447 514 22,000  Level New York Center
Tue 07:42:54 PM 40.5247 -76.3683 340° North 442 509 22,000  Level New York Center
Tue 07:43:54 PM 40.6389 -76.4242 340° North 442 509 22,000  Level New York Center
Tue 07:44:55 PM 40.7569 -76.4806 339° North 442 509 22,000  Level New York Center
Tue 07:45:53 PM 40.8728 -76.5394 340° North 442 509 22,000  Level New York Center
Tue 07:46:54 PM 40.9889 -76.5961 339° North 442 509 22,000  Level New York Center
Tue 07:47:52 PM 41.1028 -76.6528 339° North 442 509 22,000  Level New York Center
Tue 07:48:53 PM 41.2167 -76.7094 340° North 442 509 22,000  Level New York Center
Tue 07:49:53 PM 41.3325 -76.7667 340° North 442 509 22,000  Level New York Center
Tue 07:50:54 PM 41.4464 -76.8211 339° North 442 509 22,000  Level New York Center
Tue 07:51:55 PM 41.5600 -76.8786 340° North 442 509 22,000  Level New York Center
Tue 07:52:53 PM 41.6781 -76.9364 339° North 442 509 22,000  Level New York Center
Tue 07:53:54 PM 41.7917 -76.9944 339° North 437 503 22,000 -99 Level New York Center
Tue 07:54:54 PM 41.9050 -77.0522 340° North 437 503 21,800 -923 Descending New York Center
Tue 07:56:04 PM 42.0350 -77.1164 339° North 450 518 20,000 -1,846 Descending Cleveland Center
Tue 07:57:04 PM 42.1450 -77.1719 340° North 433 498 17,800 -1,900 Descending Cleveland Center
Tue 07:58:04 PM 42.2508 -77.2253 338° Northwest 410 472 16,200 -1,152 Descending Cleveland Center
Tue 07:58:43 PM 42.3269 -77.2661 342° North 408 470 15,900 -696 Descending Cleveland Center
Tue 07:59:13 PM 42.3778 -77.2889 339° North 406 467 15,400 -1,610 Descending Cleveland Center
Tue 08:00:05 PM 42.4581 -77.3297 339° North 393 452 13,700 -1,946 Descending Cleveland Center
Tue 08:01:04 PM 42.5556 -77.3811 339° North 383 441 11,800 -1,412 Descending Cleveland Center
Tue 08:02:04 PM 42.6486 -77.4300 351° North 371 427 10,900 -550 Descending Cleveland Center
Tue 08:03:04 PM 42.7428 -77.4506 355° North 347 399 10,700 -650 Descending Cleveland Center
Tue 08:04:04 PM 42.8244 -77.4606 356° North 308 354 9,600 -850 Descending Cleveland Center
Tue 08:05:04 PM 42.8997 -77.4683 355° North 277 319 9,000 -1,173 Descending Cleveland Center
Tue 08:06:17 PM 42.9958 -77.4806 354° North 266 306 7,000 -1,791 Descending Cleveland Center
Tue 08:07:18 PM 43.0669 -77.4911 356° North 256 295 5,000 -1,963 Descending Cleveland Center
Tue 08:08:04 PM 43.1236 -77.4969 322° Northwest 255 293 3,500 -1,339 Descending Cleveland Center
Tue 08:09:19 PM 43.1836 -77.5622 265° West 221 254 2,300 -706 Descending Cleveland Center
Tue 08:10:20 PM 43.1792 -77.6281 213° Southwest 184 212 1,900 -595 Descending Cleveland Center
Tue 08:11:20 PM 43.1425 -77.6611 213° Southwest 145 167 1,100 -800 Descending Cleveland Center

Login

Don't have an account? Register now (free) for customized features, flight alerts, and more!